Time;durP1;ratioP1;P1;durP2;ratioP2;P2;SDS_P1;SDS_P2;PMS_P1;PMS_P2;Temp;Humidity;BMP_temperature;BMP_pressure;BME280_temperature;BME280_humidity;BME280_pressure;Samples;Min_cycle;Max_cycle;Signal;HPM_P1;HPM_P2
2024/01/01 00:01:42;;;;;;;10.50;5.78;;;8.60;1.00;;;6.94;100.00;99592.38;4982846;28;20051;-83
2024/01/01 00:04:10;;;;;;;11.82;6.95;;;8.60;1.00;;;6.63;100.00;99568.63;4973674;28;20062;-83
2024/01/01 00:06:37;;;;;;;11.43;7.35;;;9.00;1.00;;;7.21;100.00;99646.75;4976521;28;20561;-82
2024/01/01 00:09:04;;;;;;;14.57;7.25;;;8.90;1.00;;;6.81;100.00;99590.91;4972427;28;20058;-83
2024/01/01 00:11:31;;;;;;;11.68;6.60;;;9.10;1.00;;;6.93;100.00;99608.09;4996585;28;20053;-81
2024/01/01 00:13:59;;;;;;;9.55;6.60;;;8.80;1.00;;;6.74;100.00;99577.13;4996424;28;20042;-81
2024/01/01 00:16:26;;;;;;;12.90;8.05;;;9.20;14.90;;;7.09;100.00;99629.56;4975910;28;20054;-81
2024/01/01 00:18:53;;;;;;;12.18;7.85;;;9.80;51.20;;;6.80;100.00;99579.63;4978435;28;20158;-82
2024/01/01 00:21:20;;;;;;;12.35;7.30;;;9.60;99.90;;;6.90;100.00;99597.72;4996782;28;20061;-83
2024/01/01 00:23:48;;;;;;;12.07;8.23;;;8.70;99.90;;;6.94;100.00;99609.81;4993287;28;20038;-83
2024/01/01 00:26:15;;;;;;;12.30;7.40;;;9.30;99.90;;;6.89;100.00;99603.84;4995768;28;20046;-82
2024/01/01 00:28:42;;;;;;;13.52;7.22;;;8.60;99.90;;;7.09;100.00;99640.03;4947064;28;20047;-82
2024/01/01 00:31:12;;;;;;;7.70;6.07;;;8.70;99.90;;;6.99;100.00;99623.69;4996930;28;20035;-82
2024/01/01 00:33:39;;;;;;;10.88;7.00;;;9.80;99.90;;;6.66;100.00;99571.19;4977165;28;20078;-83
2024/01/01 00:36:07;;;;;;;14.15;7.15;;;8.80;99.90;;;6.74;100.00;99589.34;4979425;28;20057;-82
2024/01/01 00:38:34;;;;;;;11.23;6.53;;;8.60;99.90;;;6.74;100.00;99584.97;4976160;28;20053;-83
2024/01/01 00:41:01;;;;;;;12.73;6.45;;;9.20;99.90;;;6.78;100.00;99570.91;4987924;28;20046;-82
2024/01/01 00:43:28;;;;;;;8.75;5.53;;;9.40;99.90;;;7.15;100.00;99631.19;4995701;28;20072;-82
2024/01/01 00:45:56;;;;;;;8.32;5.25;;;8.70;99.90;;;7.30;100.00;99669.25;4994032;28;20039;-83
2024/01/01 00:48:23;;;;;;;10.52;6.28;;;8.60;99.90;;;6.99;100.00;99621.06;4987711;28;20104;-82
2024/01/01 00:50:50;;;;;;;10.13;5.60;;;8.70;99.90;;;6.85;100.00;99570.81;4979270;28;20089;-82
2024/01/01 00:53:17;;;;;;;10.05;5.43;;;8.70;99.90;;;7.19;100.00;99640.69;4962531;28;20050;-82
2024/01/01 00:55:46;;;;;;;7.35;5.18;;;8.70;99.90;;;6.66;100.00;99564.19;4977730;28;20064;-83
2024/01/01 00:58:14;;;;;;;9.63;5.80;;;8.70;99.90;;;7.38;100.00;99649.00;4989385;28;20051;-83
2024/01/01 01:00:46;;;;;;;12.05;5.82;;;8.00;99.90;;;7.17;100.00;99616.31;4987994;28;20039;-84
2024/01/01 01:03:14;;;;;;;7.30;6.07;;;8.70;99.90;;;7.14;100.00;99608.56;4995365;28;20046;-84
2024/01/01 01:05:41;;;;;;;13.45;7.15;;;8.80;99.90;;;7.36;100.00;99646.41;4976447;28;20429;-81
2024/01/01 01:08:08;;;;;;;13.63;6.72;;;9.00;99.90;;;7.47;100.00;99647.94;4979198;28;20054;-83
2024/01/01 01:10:36;;;;;;;11.38;6.30;;;9.50;99.90;;;7.12;100.00;99599.88;5009870;28;20056;-82
2024/01/01 01:13:04;;;;;;;11.32;5.30;;;8.90;99.90;;;7.10;100.00;99597.28;4995450;28;20046;-82
2024/01/01 01:15:32;;;;;;;9.70;6.10;;;8.70;99.90;;;6.94;100.00;99581.06;4978644;28;20054;-83
2024/01/01 01:17:59;;;;;;;11.57;5.80;;;9.00;99.90;;;6.80;100.00;99571.78;4978872;28;20056;-82
2024/01/01 01:20:27;;;;;;;10.55;5.78;;;9.10;99.90;;;6.73;100.00;99554.47;4971405;28;20077;-83
2024/01/01 01:22:54;;;;;;;8.95;6.20;;;9.20;99.90;;;7.20;100.00;99637.19;4994768;28;20048;-82
2024/01/01 01:25:21;;;;;;;9.13;5.93;;;9.50;99.90;;;7.36;100.00;99659.50;4978504;28;20081;-81
2024/01/01 01:27:48;;;;;;;6.97;5.47;;;9.40;99.90;;;6.73;100.00;99553.63;4961203;28;20050;-82
2024/01/01 01:30:18;;;;;;;12.70;7.78;;;8.70;1.00;;;7.13;100.00;99617.28;4979502;28;20437;-81
2024/01/01 01:32:45;;;;;;;11.38;6.68;;;8.70;1.00;;;7.18;100.00;99637.22;4979599;28;20085;-81
2024/01/01 01:35:13;;;;;;;8.48;5.35;;;8.80;1.00;;;7.41;100.00;99671.63;4963320;28;20077;-81
2024/01/01 01:37:40;;;;;;;8.52;5.28;;;10.60;1.00;;;7.22;100.00;99632.78;4978236;28;20058;-82
2024/01/01 01:40:08;;;;;;;8.50;5.90;;;8.80;1.00;;;7.50;100.00;99669.69;4992911;28;20490;-82
2024/01/01 01:42:36;;;;;;;8.13;5.00;;;8.80;1.00;;;7.31;100.00;99661.38;4995444;28;20050;-81
2024/01/01 01:45:03;;;;;;;10.88;5.82;;;8.90;1.00;;;7.50;100.00;99682.78;4970859;28;20092;-82
2024/01/01 01:47:31;;;;;;;10.02;5.18;;;8.80;1.00;;;6.88;100.00;99589.03;4995132;28;20045;-82
2024/01/01 01:49:58;;;;;;;6.70;4.78;;;10.40;1.00;;;6.93;100.00;99588.06;4977587;28;20120;-83
2024/01/01 01:52:26;;;;;;;7.63;5.20;;;9.70;1.00;;;7.12;100.00;99615.56;4993351;28;20054;-83
2024/01/01 01:54:56;;;;;;;;;;;8.80;1.00;;;6.76;100.00;99558.78;4983633;28;20048;-84
2024/01/01 01:57:24;;;;;;;11.13;5.68;;;9.20;1.00;;;7.43;100.00;99673.31;4972936;28;20709;-83
2024/01/01 01:59:52;;;;;;;9.73;5.90;;;9.90;10.70;;;7.40;100.00;99670.78;4977543;28;20050;-82
2024/01/01 02:02:23;;;;;;;10.32;5.18;;;9.60;51.50;;;7.49;100.00;99685.41;4964520;28;20105;-81
2024/01/01 02:04:50;;;;;;;9.05;5.45;;;8.60;3.50;;;7.28;100.00;99650.09;4976032;28;20051;-82
2024/01/01 02:07:20;;;;;;;8.20;5.38;;;9.10;58.20;;;7.44;100.00;99671.56;4993833;28;20105;-82
2024/01/01 02:09:47;;;;;;;12.70;5.93;;;9.70;82.10;;;7.02;100.00;99607.91;4977459;28;20118;-83
2024/01/01 02:12:15;;;;;;;10.95;5.47;;;9.10;99.90;;;7.09;100.00;99616.50;4972448;28;20061;-83
2024/01/01 02:14:42;;;;;;;6.78;4.78;;;8.80;99.90;;;6.86;100.00;99580.38;4960828;28;20117;-83
2024/01/01 02:17:09;;;;;;;9.13;5.35;;;8.80;99.90;;;7.22;100.00;99658.94;4980553;28;20053;-82
2024/01/01 02:19:36;;;;;;;8.68;5.75;;;8.70;99.90;;;6.72;100.00;99541.47;4972124;28;20043;-83
2024/01/01 02:22:08;;;;;;;8.88;5.57;;;9.20;99.90;;;6.95;100.00;99583.66;4975487;28;20050;-83
2024/01/01 02:24:35;;;;;;;9.80;6.45;;;8.70;99.90;;;7.31;100.00;99657.88;4983076;28;20042;-82
2024/01/01 02:27:02;;;;;;;6.82;5.63;;;8.70;99.90;;;6.90;100.00;99569.81;4965250;28;20057;-82
2024/01/01 02:29:32;;;;;;;7.63;4.88;;;8.70;99.90;;;7.26;100.00;99641.44;4959295;28;20448;-83
2024/01/01 02:31:59;;;;;;;7.93;5.57;;;8.70;99.90;;;6.83;100.00;99576.06;4973959;28;20047;-82
2024/01/01 02:34:27;;;;;;;9.43;4.63;;;10.00;99.90;;;7.24;100.00;99646.69;4973629;28;20046;-83
2024/01/01 02:36:55;;;;;;;7.15;4.70;;;8.60;99.90;;;7.29;100.00;99657.06;4990347;28;20100;-82
2024/01/01 02:39:22;;;;;;;12.02;5.55;;;8.60;99.90;;;7.26;100.00;99655.38;4974818;28;20045;-83
2024/01/01 02:41:49;;;;;;;6.57;4.55;;;8.60;99.90;;;7.33;100.00;99674.41;4974647;28;20065;-82
2024/01/01 02:44:18;;;;;;;7.93;4.93;;;9.20;99.90;;;7.11;100.00;99648.72;4975080;28;20055;-81
2024/01/01 02:46:46;;;;;;;9.07;4.43;;;9.40;99.90;;;7.37;100.00;99678.69;4982520;28;20057;-84
2024/01/01 02:49:13;;;;;;;8.32;4.10;;;8.60;99.90;;;6.80;100.00;99600.53;4990359;28;20057;-83
2024/01/01 02:51:44;;;;;;;6.85;4.72;;;8.60;99.90;;;6.60;100.00;99574.81;4957092;28;20154;-82
2024/01/01 02:54:11;;;;;;;;;;;9.30;99.90;;;7.12;100.00;99646.97;4967515;28;20043;-82
2024/01/01 02:56:38;;;;;;;7.22;4.55;;;8.00;1.00;;;6.59;100.00;99564.34;4971777;28;19980;-82
2024/01/01 02:59:05;;;;;;;9.30;4.93;;;9.00;1.00;;;6.75;100.00;99601.53;4975486;28;20046;-81
2024/01/01 03:01:32;;;;;;;7.72;4.43;;;9.20;1.00;;;6.56;100.00;99595.78;4992351;28;20042;-82
2024/01/01 03:04:00;;;;;;;9.90;4.32;;;8.40;6.70;;;6.75;100.00;99620.66;4961983;28;20073;-82
2024/01/01 03:06:28;;;;;;;7.78;4.28;;;8.60;99.90;;;6.59;100.00;99596.59;4946430;28;20517;-82
2024/01/01 03:08:55;;;;;;;6.35;3.85;;;7.20;99.90;;;6.72;100.00;99632.97;4973729;28;20141;-82
2024/01/01 03:11:22;;;;;;;9.50;4.22;;;9.50;99.90;;;6.23;100.00;99545.03;4984590;28;20051;-81
2024/01/01 03:13:49;;;;;;;8.73;4.40;;;8.30;99.90;;;6.56;100.00;99614.09;4982050;28;20046;-81
2024/01/01 03:16:16;;;;;;;7.20;4.05;;;8.70;99.90;;;6.65;100.00;99614.78;4977265;28;20054;-82
2024/01/01 03:18:43;;;;;;;7.18;3.83;;;9.20;99.90;;;6.56;100.00;99617.59;4984728;28;20057;-82
2024/01/01 03:21:11;;;;;;;6.88;4.28;;;8.60;99.90;;;6.95;100.00;99672.56;4971207;28;20074;-84
2024/01/01 03:23:38;;;;;;;8.05;4.57;;;9.00;99.90;;;6.61;100.00;99627.91;4991384;28;20058;-82
2024/01/01 03:26:05;;;;;;;6.72;3.53;;;9.20;99.90;;;6.68;100.00;99660.91;4953127;28;20077;-82
2024/01/01 03:28:32;;;;;;;6.53;3.80;;;8.70;99.90;;;7.06;100.00;99702.88;4992541;28;20552;-82
2024/01/01 03:31:00;;;;;;;6.60;3.30;;;8.60;99.90;;;7.09;100.00;99706.28;4952382;28;20197;-81
2024/01/01 03:33:28;;;;;;;5.45;3.10;;;9.10;99.90;;;6.99;100.00;99710.00;4933981;28;20488;-82
2024/01/01 03:35:55;;;;;;;8.00;3.28;;;8.40;99.90;;;7.09;100.00;99711.50;4938511;28;20742;-82
2024/01/01 03:38:22;;;;;;;8.63;3.50;;;8.30;99.90;;;6.90;100.00;99670.94;4955321;28;20509;-81
2024/01/01 03:40:49;;;;;;;6.80;3.40;;;8.70;99.90;;;6.90;100.00;99673.56;4938146;28;20086;-82
2024/01/01 03:43:17;;;;;;;9.43;3.83;;;9.60;99.90;;;7.04;100.00;99718.59;4934248;28;20109;-82
2024/01/01 03:45:44;;;;;;;6.35;2.88;;;8.60;99.90;;;6.16;100.00;99589.59;4952752;28;20090;-82
2024/01/01 03:48:12;;;;;;;6.28;3.35;;;8.30;99.90;;;6.76;100.00;99692.97;4956558;28;20098;-81
2024/01/01 03:50:39;;;;;;;9.35;3.65;;;9.10;99.90;;;6.14;100.00;99586.13;4949382;28;20207;-81
2024/01/01 03:53:06;;;;;;;9.43;3.30;;;10.20;99.90;;;6.57;100.00;99655.03;4941037;28;20058;-81
2024/01/01 03:55:33;;;;;;;8.07;3.25;;;8.80;99.90;;;6.97;100.00;99723.97;4937937;28;20070;-82
2024/01/01 03:58:00;;;;;;;6.82;3.25;;;8.20;99.90;;;6.63;100.00;99673.19;4956173;28;20050;-81
2024/01/01 04:00:28;;;;;;;8.40;3.10;;;9.80;99.90;;;6.17;100.00;99588.69;4958457;28;20043;-82
2024/01/01 04:02:55;;;;;;;7.80;3.33;;;8.70;99.90;;;6.98;100.00;99728.31;4985630;28;20062;-81
2024/01/01 04:05:22;;;;;;;6.43;3.42;;;8.90;99.90;;;6.99;100.00;99716.97;4960428;28;20047;-82
2024/01/01 04:07:49;;;;;;;7.68;2.92;;;8.20;99.90;;;6.99;100.00;99702.16;4967125;28;20049;-82
2024/01/01 04:10:17;;;;;;;10.02;3.53;;;8.20;91.50;;;6.62;100.00;99647.94;4971337;28;20042;-80
2024/01/01 04:12:44;;;;;;;7.90;3.30;;;8.20;45.80;;;6.36;100.00;99625.78;4985545;28;20086;-83
2024/01/01 04:15:12;;;;;;;13.20;3.90;;;7.40;21.60;;;6.17;100.00;99573.91;4995475;28;20145;-81
2024/01/01 04:17:39;;;;;;;6.82;3.17;;;9.30;1.00;;;6.96;100.00;99710.06;4954730;28;20597;-82
2024/01/01 04:20:10;;;;;;;11.35;4.53;;;9.60;1.00;;;6.49;100.00;99624.69;4981548;28;20571;-82
2024/01/01 04:22:42;;;;;;;8.07;2.92;;;8.30;1.00;;;6.65;100.00;99655.75;4988894;28;20050;-82
2024/01/01 04:25:10;;;;;;;7.60;3.00;;;9.70;1.00;;;6.95;100.00;99687.41;4975445;28;20452;-81
2024/01/01 04:27:38;;;;;;;11.68;5.50;;;9.30;1.00;;;7.23;100.00;99718.22;4958920;28;20046;-81
2024/01/01 04:30:06;;;;;;;9.00;3.50;;;10.00;99.90;;;7.00;100.00;99690.78;4972221;28;20051;-81
2024/01/01 04:32:33;;;;;;;14.07;4.15;;;8.40;99.90;;;6.88;100.00;99650.06;4980439;28;20160;-82
2024/01/01 04:35:00;;;;;;;9.25;3.75;;;8.40;99.90;;;6.94;100.00;99664.75;4990877;28;20046;-81
2024/01/01 04:37:27;;;;;;;7.00;3.47;;;8.20;99.90;;;6.64;100.00;99620.03;4974503;28;20091;-81
2024/01/01 04:39:54;;;;;;;12.73;3.42;;;8.80;99.90;;;6.66;100.00;99608.66;4971596;28;20128;-81
2024/01/01 04:42:21;;;;;;;11.25;3.90;;;9.90;99.90;;;6.75;100.00;99615.44;4981043;28;20050;-81
2024/01/01 04:44:48;;;;;;;6.80;3.95;;;9.20;99.90;;;7.24;100.00;99688.53;4982004;28;20049;-82
2024/01/01 04:47:15;;;;;;;8.18;4.10;;;8.50;99.90;;;6.70;100.00;99614.69;4969404;28;20796;-80
2024/01/01 04:49:43;;;;;;;9.35;4.40;;;8.60;99.90;;;6.77;100.00;99629.34;4969334;28;20414;-82
2024/01/01 04:52:10;;;;;;;11.63;5.95;;;8.60;99.90;;;7.06;100.00;99684.56;4990660;28;20050;-81
2024/01/01 04:54:37;;;;;;;11.73;5.55;;;9.60;99.90;;;6.72;100.00;99625.13;4950395;28;20057;-81
2024/01/01 04:57:05;;;;;;;10.57;5.20;;;9.80;99.90;;;6.77;100.00;99623.25;4980421;28;20092;-81
2024/01/01 04:59:32;;;;;;;9.90;5.10;;;8.50;99.90;;;7.09;100.00;99679.28;4974186;28;20054;-81
2024/01/01 05:01:59;;;;;;;9.30;4.75;;;9.00;99.90;;;6.72;100.00;99636.41;4969216;28;20051;-82
2024/01/01 05:04:26;;;;;;;13.07;4.45;;;9.50;99.90;;;6.93;100.00;99678.72;4984686;28;20066;-81
2024/01/01 05:06:53;;;;;;;7.05;3.67;;;9.30;99.90;;;6.79;100.00;99635.44;4980486;28;20098;-81
2024/01/01 05:09:20;;;;;;;6.88;3.33;;;9.50;99.90;;;6.69;100.00;99646.94;4973665;28;20139;-80
2024/01/01 05:11:47;;;;;;;9.52;3.47;;;9.40;59.10;;;6.84;100.00;99668.47;4989585;28;20042;-81
2024/01/01 05:14:14;;;;;;;4.47;2.63;;;9.00;1.00;;;7.14;100.00;99723.66;4956934;28;20572;-80
2024/01/01 05:16:44;;;;;;;6.13;2.50;;;9.10;1.00;;;6.70;100.00;99643.44;4972368;28;20141;-82
2024/01/01 05:19:11;;;;;;;3.78;2.72;;;8.10;29.90;;;6.62;100.00;99646.19;4959814;28;20113;-82
2024/01/01 05:21:38;;;;;;;7.63;2.08;;;8.40;42.80;;;6.59;100.00;99648.88;4970579;28;20047;-80
2024/01/01 05:24:06;;;;;;;6.32;2.85;;;8.90;93.30;;;6.95;100.00;99698.72;4964913;28;20080;-82
2024/01/01 05:26:33;;;;;;;4.28;1.88;;;8.40;87.60;;;6.33;100.00;99610.19;4988221;28;20047;-81
2024/01/01 05:29:00;;;;;;;6.28;2.25;;;8.70;39.00;;;7.06;100.00;99735.13;4972551;28;20050;-81
2024/01/01 05:31:27;;;;;;;3.90;2.00;;;8.20;65.00;;;6.62;100.00;99654.03;4957266;28;20057;-80
2024/01/01 05:33:54;;;;;;;7.30;2.05;;;8.40;35.60;;;6.57;100.00;99673.31;4956753;28;20548;-81
2024/01/01 05:36:22;;;;;;;10.02;3.38;;;8.70;1.00;;;6.47;100.00;99662.19;4988978;28;20142;-82
2024/01/01 05:38:49;;;;;;;5.18;1.80;;;9.00;43.90;;;6.31;100.00;99632.84;4986892;28;20058;-81
2024/01/01 05:41:16;;;;;;;6.70;2.25;;;8.40;96.00;;;6.59;100.00;99689.81;4950345;28;20054;-80
2024/01/01 05:43:43;;;;;;;4.85;2.25;;;8.80;1.00;;;6.46;100.00;99674.38;4991409;28;20054;-79
2024/01/01 05:46:10;;;;;;;6.05;2.15;;;9.00;1.00;;;6.77;100.00;99722.63;4960093;28;20073;-81
2024/01/01 05:48:37;;;;;;;6.25;1.95;;;8.90;1.00;;;6.36;100.00;99671.06;4985767;28;20043;-81
2024/01/01 05:51:09;;;;;;;;;;;9.10;1.00;;;6.34;100.00;99664.16;4968303;28;20065;-81
2024/01/01 05:53:36;;;;;;;4.95;2.10;;;8.80;99.90;;;6.99;100.00;99758.81;4989149;28;19926;-82
2024/01/01 05:56:04;;;;;;;5.80;2.53;;;8.20;99.90;;;6.01;100.00;99586.34;4989040;28;20076;-80
2024/01/01 05:58:31;;;;;;;4.82;1.83;;;8.20;99.90;;;6.85;100.00;99722.47;4988559;28;20050;-79
2024/01/01 06:00:59;;;;;;;7.05;2.67;;;8.70;99.90;;;6.91;100.00;99749.38;4977164;28;20237;-80
2024/01/01 06:03:26;;;;;;;4.13;1.73;;;8.60;99.90;;;6.37;100.00;99679.78;4992638;28;20051;-81
2024/01/01 06:05:54;;;;;;;10.07;2.35;;;9.40;99.90;;;6.41;100.00;99691.03;4992338;28;20066;-81
2024/01/01 06:08:21;;;;;;;5.45;1.90;;;9.20;98.20;;;6.49;100.00;99694.38;4976398;28;20092;-79
2024/01/01 06:10:49;;;;;;;3.63;1.77;;;9.10;1.00;;;6.38;100.00;99666.66;4976976;28;20054;-79
2024/01/01 06:13:16;;;;;;;7.13;2.78;;;9.00;1.00;;;6.84;100.00;99754.75;4993069;28;20081;-80
2024/01/01 06:15:43;;;;;;;9.27;2.75;;;9.50;1.00;;;6.83;100.00;99742.56;4973951;28;20465;-80
2024/01/01 06:18:11;;;;;;;5.95;2.00;;;8.30;1.00;;;6.55;100.00;99715.16;4958436;28;20788;-80
2024/01/01 06:20:39;;;;;;;5.95;2.28;;;9.10;99.90;;;6.88;100.00;99753.78;4990381;28;20137;-79
2024/01/01 06:23:06;;;;;;;9.57;3.83;;;9.50;1.00;;;6.37;100.00;99685.84;4986824;28;20050;-83
2024/01/01 06:25:33;;;;;;;5.72;2.10;;;9.10;99.90;;;6.57;100.00;99723.84;4993193;28;20050;-80
2024/01/01 06:28:01;;;;;;;7.05;1.95;;;9.10;99.90;;;6.66;100.00;99728.06;4980008;28;20042;-79
2024/01/01 06:30:30;;;;;;;6.50;2.08;;;8.30;99.90;;;6.60;100.00;99741.22;4998696;28;20054;-82
2024/01/01 06:32:57;;;;;;;5.47;2.17;;;8.90;99.90;;;6.82;100.00;99749.53;4974166;28;20057;-80
2024/01/01 06:35:28;;;;;;;4.47;2.10;;;9.10;99.90;;;6.27;100.00;99684.31;4992626;28;20078;-81
2024/01/01 06:37:57;;;;;;;3.95;1.73;;;8.30;99.90;;;6.55;100.00;99725.59;4987069;28;20501;-83
2024/01/01 06:40:24;;;;;;;6.63;1.98;;;8.70;99.90;;;6.13;100.00;99668.00;4987463;28;20497;-81
2024/01/01 06:42:51;;;;;;;5.00;2.03;;;9.50;99.90;;;6.24;100.00;99690.44;4977432;28;20047;-80
2024/01/01 06:45:18;;;;;;;8.30;2.13;;;9.10;99.90;;;6.07;100.00;99659.34;4998698;28;20073;-80
2024/01/01 06:47:46;;;;;;;8.55;2.40;;;9.30;99.90;;;6.36;100.00;99704.19;5006319;28;20049;-81
2024/01/01 06:50:14;;;;;;;10.13;2.88;;;8.70;99.90;;;6.72;100.00;99777.59;4994538;28;20099;-81
2024/01/01 06:52:41;;;;;;;4.60;1.90;;;8.20;99.90;;;6.72;100.00;99759.31;4963153;28;20108;-79
2024/01/01 06:55:09;;;;;;;11.75;3.00;;;8.20;99.90;;;6.63;100.00;99791.69;4999810;28;20046;-81
2024/01/01 06:57:36;;;;;;;9.02;2.42;;;9.20;99.90;;;6.47;100.00;99730.13;4999448;28;20540;-80
2024/01/01 07:00:07;;;;;;;10.75;2.72;;;9.60;99.90;;;6.59;100.00;99779.56;4999010;28;20050;-81
2024/01/01 07:02:34;;;;;;;4.07;1.83;;;8.20;99.90;;;6.52;100.00;99754.41;4999000;28;20054;-81
2024/01/01 07:05:02;;;;;;;5.40;1.80;;;9.10;99.90;;;6.71;100.00;99786.34;4999051;28;20129;-81
2024/01/01 07:07:30;;;;;;;7.20;2.45;;;8.30;99.90;;;6.29;100.00;99728.69;4983542;28;20082;-80
2024/01/01 07:09:57;;;;;;;6.45;2.95;;;8.70;90.10;;;6.39;100.00;99752.00;5015571;28;20057;-81
2024/01/01 07:12:27;;;;;;;11.40;2.80;;;8.20;88.50;;;6.49;100.00;99765.81;4982681;28;20124;-80
2024/01/01 07:14:55;;;;;;;7.88;2.17;;;8.70;99.90;;;6.51;100.00;99777.09;4998916;28;20054;-81
2024/01/01 07:17:22;;;;;;;7.32;2.20;;;8.90;99.90;;;6.73;100.00;99844.69;4998139;28;20058;-81
2024/01/01 07:19:49;;;;;;;7.80;1.75;;;8.20;99.90;;;6.08;100.00;99734.22;4973660;28;20042;-80
2024/01/01 07:22:17;;;;;;;4.90;2.08;;;9.10;99.90;;;6.30;100.00;99766.97;4997031;28;20170;-82
2024/01/01 07:24:44;;;;;;;8.70;2.55;;;9.50;99.90;;;6.81;100.00;99871.59;4997650;28;20050;-81
2024/01/01 07:27:11;;;;;;;6.68;2.63;;;9.30;99.90;;;6.28;100.00;99755.69;4981877;28;20065;-81
2024/01/01 07:29:40;;;;;;;4.90;2.35;;;8.00;99.90;;;5.97;100.00;99720.44;4978156;28;20046;-80
2024/01/01 07:32:07;;;;;;;6.35;2.42;;;8.20;99.90;;;6.49;100.00;99805.00;4995598;28;20051;-80
2024/01/01 07:34:35;;;;;;;7.88;2.47;;;8.80;99.90;;;6.73;100.00;99841.22;4983172;28;20081;-81
2024/01/01 07:37:04;;;;;;;9.75;2.78;;;8.60;99.90;;;6.37;100.00;99797.38;4997995;28;20277;-82
2024/01/01 07:39:32;;;;;;;8.98;2.45;;;8.00;99.90;;;6.17;100.00;99780.25;4997802;28;20058;-81
2024/01/01 07:41:59;;;;;;;5.53;2.88;;;8.00;99.90;;;6.65;100.00;99851.81;5014188;28;20042;-80
2024/01/01 07:44:27;;;;;;;6.18;2.20;;;9.40;99.90;;;6.55;100.00;99826.69;4982539;28;20046;-82
2024/01/01 07:46:58;;;;;;;5.05;2.10;;;8.20;99.90;;;6.20;100.00;99777.59;4981410;28;20109;-81
2024/01/01 07:49:25;;;;;;;6.82;2.47;;;8.50;99.90;;;6.59;100.00;99821.41;4994016;28;20070;-82
2024/01/01 07:51:52;;;;;;;6.32;2.08;;;9.00;99.90;;;6.37;100.00;99789.53;4994776;28;20084;-82
2024/01/01 07:54:20;;;;;;;9.63;3.20;;;9.20;99.90;;;6.12;100.00;99763.78;4969871;28;20498;-83
2024/01/01 07:56:47;;;;;;;9.07;2.70;;;8.00;99.90;;;6.14;100.00;99784.66;4978562;28;20046;-80
2024/01/01 07:59:15;;;;;;;8.00;3.50;;;8.10;99.90;;;6.58;100.00;99852.78;4962534;28;20050;-81
2024/01/01 08:01:43;;;;;;;10.85;2.47;;;8.00;99.90;;;6.94;100.00;99903.63;4994085;28;20056;-81
2024/01/01 08:04:12;;;;;;;6.35;2.17;;;7.70;99.90;;;6.85;100.00;99898.53;4996859;28;20038;-82
2024/01/01 08:06:39;;;;;;;5.20;1.98;;;9.60;99.90;;;6.16;100.00;99756.75;4981186;28;20056;-81
2024/01/01 08:09:06;;;;;;;7.18;2.58;;;9.20;99.90;;;6.79;100.00;99868.16;4985107;28;20057;-80
2024/01/01 08:11:33;;;;;;;12.50;2.38;;;9.40;99.90;;;6.04;100.00;99723.88;4988404;28;20047;-82
2024/01/01 08:14:00;;;;;;;8.18;3.33;;;8.50;99.90;;;6.83;100.00;99866.31;4960088;28;20047;-83
2024/01/01 08:16:33;;;;;;;9.52;3.35;;;9.00;99.90;;;6.05;100.00;99741.25;4970613;28;20394;-82
2024/01/01 08:19:00;;;;;;;4.00;1.98;;;9.40;99.90;;;6.37;100.00;99787.75;4976561;28;20046;-83
2024/01/01 08:21:28;;;;;;;9.18;2.13;;;8.10;99.90;;;6.71;100.00;99833.41;4965658;28;20038;-80
2024/01/01 08:23:55;;;;;;;9.40;2.53;;;9.10;99.90;;;6.38;100.00;99781.63;4994640;28;20046;-83
2024/01/01 08:26:22;;;;;;;5.53;1.95;;;9.20;99.90;;;6.62;100.00;99838.78;4995546;28;20077;-81
2024/01/01 08:28:51;;;;;;;6.25;2.17;;;9.20;99.90;;;6.49;100.00;99805.00;4977703;28;20059;-82
2024/01/01 08:31:20;;;;;;;6.85;1.88;;;8.20;99.90;;;6.31;100.00;99760.84;4969634;28;20071;-81
2024/01/01 08:33:48;;;;;;;5.07;2.00;;;8.90;99.90;;;6.62;100.00;99825.69;4993129;28;20774;-81
2024/01/01 08:36:16;;;;;;;4.53;2.85;;;8.50;99.90;;;6.95;100.00;99867.88;4978861;28;20057;-82
2024/01/01 08:38:43;;;;;;;5.60;2.17;;;8.20;99.90;;;6.12;100.00;99731.56;4975309;28;20061;-81
2024/01/01 08:41:13;;;;;;;11.90;2.22;;;8.30;99.90;;;6.93;100.00;99864.41;4985603;28;20066;-82
2024/01/01 08:43:46;;;;;;;8.13;2.58;;;8.40;99.90;;;6.71;100.00;99829.91;4960264;28;20049;-82
2024/01/01 08:46:14;;;;;;;6.28;2.30;;;9.40;98.70;;;6.47;100.00;99811.13;4955672;28;20769;-82
2024/01/01 08:48:44;;;;;;;6.97;2.55;;;8.30;73.80;;;6.18;100.00;99763.69;4974895;28;20047;-80
2024/01/01 08:51:11;;;;;;;;;;;8.40;99.90;;;6.61;100.00;99829.19;4968863;28;20058;-81
2024/01/01 08:53:38;;;;;;;12.35;5.18;;;8.20;99.90;;;6.56;100.00;99805.78;4961858;28;19969;-81
2024/01/01 08:56:06;;;;;;;9.32;4.13;;;9.70;99.90;;;6.72;100.00;99847.34;4993915;28;20072;-82
2024/01/01 08:58:34;;;;;;;18.52;4.47;;;8.30;99.90;;;6.46;100.00;99812.88;4982805;28;20070;-80
2024/01/01 09:01:01;;;;;;;16.20;5.82;;;9.00;99.90;;;6.56;100.00;99795.31;4978521;28;20105;-80
2024/01/01 09:03:29;;;;;;;7.40;3.30;;;8.40;97.00;;;6.86;100.00;99857.56;4959047;28;20070;-83
2024/01/01 09:05:57;;;;;;;8.63;2.17;;;9.30;99.90;;;6.75;100.00;99855.97;4968401;28;20046;-81
2024/01/01 09:08:25;;;;;;;9.18;2.55;;;8.40;32.40;;;7.15;100.00;99900.69;4975037;28;20043;-81
2024/01/01 09:10:53;;;;;;;6.25;2.10;;;9.30;1.00;;;6.95;100.00;99875.72;4957440;28;20047;-82
2024/01/01 09:13:20;;;;;;;7.28;2.35;;;9.40;1.00;;;6.58;100.00;99822.28;4975021;28;20093;-80
2024/01/01 09:15:48;;;;;;;4.30;2.28;;;9.40;1.00;;;6.71;100.00;99856.06;4961596;28;20042;-81
2024/01/01 09:18:15;;;;;;;5.60;2.03;;;8.70;1.00;;;6.74;100.00;99858.66;4978943;28;20548;-81
2024/01/01 09:20:43;;;;;;;5.88;2.33;;;9.00;1.00;;;6.70;100.00;99822.97;4992143;28;20047;-82
2024/01/01 09:23:10;;;;;;;6.70;2.50;;;9.40;1.00;;;6.29;100.00;99775.69;4979751;28;20118;-83
2024/01/01 09:25:42;;;;;;;9.32;3.03;;;7.40;1.00;;;6.95;100.00;99876.56;4975628;28;20046;-82
2024/01/01 09:28:10;;;;;;;7.88;2.38;;;8.90;1.00;;;7.25;100.00;99912.69;4987095;28;20050;-82
2024/01/01 09:30:50;;;;;;;7.30;2.20;;;8.90;1.00;;;6.83;100.00;99868.94;4995570;28;20083;-83
2024/01/01 09:33:17;;;;;;;;;;;8.60;1.00;;;7.19;100.00;99911.06;4973728;28;20059;-82
2024/01/01 09:35:54;;;;;;;5.00;2.05;;;9.50;1.00;;;6.65;100.00;99838.75;4971796;28;20367;-84
2024/01/01 09:38:42;;;;;;;8.60;3.03;;;9.90;1.00;;;6.90;100.00;99898.47;4992790;28;20121;-84
2024/01/01 09:41:33;;;;;;;7.65;2.30;;;8.70;1.00;;;6.55;100.00;99816.25;4992560;28;20034;-82
2024/01/01 09:44:16;;;;;;;8.82;2.10;;;8.30;1.00;;;6.75;100.00;99850.75;4976349;28;20050;-81
2024/01/01 09:47:07;;;;;;;8.65;2.60;;;8.90;1.00;;;7.11;100.00;99896.41;4987412;28;20058;-82
2024/01/01 09:49:54;;;;;;;9.30;3.65;;;8.20;1.00;;;7.07;100.00;99888.56;4981087;28;20520;-82
2024/01/01 09:52:31;;;;;;;3.85;2.00;;;7.40;99.90;;;6.53;100.00;99801.44;4962393;28;20043;-82
2024/01/01 09:55:07;;;;;;;9.02;3.05;;;9.40;99.90;;;6.75;100.00;99827.22;4968640;28;20115;-82
2024/01/01 09:57:38;;;;;;;5.65;2.40;;;10.40;99.90;;;6.94;100.00;99881.81;4952667;28;20112;-82
2024/01/01 10:00:19;;;;;;;8.40;3.10;;;8.70;99.90;;;6.90;100.00;99861.84;4976811;28;20069;-82
2024/01/01 10:03:22;;;;;;;9.00;3.55;;;8.80;1.00;;;7.41;100.00;99935.97;4994112;28;20046;-83
2024/01/01 10:06:06;;;;;;;8.73;2.90;;;8.90;1.00;;;7.02;100.00;99866.88;4980644;28;20050;-83
2024/01/01 10:08:33;;;;;;;7.57;3.08;;;10.00;1.00;;;7.64;100.00;99941.66;4976787;28;20070;-81
2024/01/01 10:11:20;;;;;;;8.93;3.17;;;9.20;99.90;;;7.20;100.00;99914.53;4979772;28;20050;-82
2024/01/01 10:13:49;;;;;;;6.88;3.03;;;8.80;1.00;;;7.19;100.00;99894.50;4979671;28;20034;-82
2024/01/01 10:16:33;;;;;;;6.50;2.20;;;9.70;13.60;;;6.92;100.00;99841.75;4979042;28;20043;-81
2024/01/01 10:19:03;;;;;;;8.13;3.05;;;8.80;99.90;;;7.34;100.00;99891.59;4995811;28;20050;-82
2024/01/01 10:21:40;;;;;;;8.50;3.15;;;8.90;99.90;;;6.94;100.00;99833.00;4994971;28;20609;-82
2024/01/01 10:24:25;;;;;;;8.35;3.83;;;7.90;99.90;;;6.66;100.00;99802.09;4961025;28;20529;-82
2024/01/01 10:27:09;;;;;;;9.15;2.90;;;8.90;2.10;;;7.60;100.00;99905.97;4973823;28;20054;-82
2024/01/01 10:29:51;;;;;;;13.63;3.20;;;10.00;99.90;;;7.09;100.00;99810.09;4994845;28;20047;-82
2024/01/01 10:32:24;;;;;;;9.02;4.30;;;8.30;99.90;;;7.87;100.00;99923.78;4979485;28;20081;-83
2024/01/01 10:35:05;;;;;;;7.68;2.60;;;9.70;1.00;;;7.27;100.00;99821.97;4971635;28;20050;-83